createdAt,value
2018-09-12T00:02:10.929Z,6.60
2018-09-12T00:04:40.945Z,7.23
2018-09-12T00:14:57.417Z,7.83
2018-09-12T00:17:27.414Z,7.50
2018-09-12T00:19:56.500Z,8.20
2018-09-12T00:22:25.549Z,7.27
2018-09-12T00:24:54.828Z,6.63
2018-09-12T00:32:36.373Z,7.43
2018-09-12T00:35:05.412Z,7.97
2018-09-12T00:37:34.461Z,8.13
2018-09-12T00:40:03.496Z,7.70
2018-09-12T00:42:33.464Z,6.77
2018-09-12T00:47:38.241Z,8.50
2018-09-12T00:52:43.020Z,8.33
2018-09-12T00:55:12.996Z,7.47
2018-09-12T00:57:45.448Z,7.70
2018-09-12T01:00:14.493Z,7.33
2018-09-12T01:10:31.038Z,7.90
2018-09-12T01:13:00.097Z,8.00
2018-09-12T01:15:31.060Z,8.10
2018-09-12T01:18:00.149Z,6.93
2018-09-12T01:20:29.200Z,6.83
2018-09-12T01:25:34.030Z,8.50
2018-09-12T01:28:03.077Z,8.30
2018-09-12T01:33:12.901Z,8.20
2018-09-12T01:35:42.125Z,7.03
2018-09-12T01:38:11.175Z,7.63
2018-09-12T01:43:15.945Z,8.17
2018-09-12T01:45:47.066Z,8.43
2018-09-12T01:48:17.084Z,7.17
2018-09-12T01:50:49.804Z,7.33
2018-09-12T01:53:18.875Z,7.37
2018-09-12T01:58:23.644Z,7.43
2018-09-12T02:00:53.629Z,8.20
2018-09-12T02:03:22.664Z,7.73
2018-09-12T02:05:51.711Z,7.03
2018-09-12T02:08:20.762Z,7.70
2018-09-12T02:16:44.755Z,7.40
2018-09-12T02:19:13.801Z,7.70
2018-09-12T02:21:42.844Z,7.83
2018-09-12T02:26:48.719Z,7.80
2018-09-12T02:29:17.764Z,8.03
2018-09-12T02:31:46.807Z,7.80
2018-09-12T02:34:15.857Z,7.27
2018-09-12T02:36:45.932Z,8.10
2018-09-12T02:44:26.445Z,7.40
2018-09-12T02:46:55.501Z,8.27
2018-09-12T02:49:24.564Z,6.23
2018-09-12T02:51:53.620Z,7.70
2018-09-12T02:59:34.129Z,8.30
2018-09-12T03:02:03.179Z,7.70
2018-09-12T03:07:11.981Z,8.48
2018-09-12T03:17:28.229Z,9.07
2018-09-12T03:19:57.286Z,8.37
2018-09-12T03:22:29.378Z,8.37
2018-09-12T03:27:34.154Z,7.73
2018-09-12T03:30:03.186Z,8.83
2018-09-12T03:32:32.242Z,8.40
2018-09-12T03:35:01.301Z,7.83
2018-09-12T03:37:30.340Z,8.30
2018-09-12T03:40:00.345Z,8.27
2018-09-12T03:45:05.110Z,9.00
2018-09-12T03:47:34.197Z,9.10
2018-09-12T03:50:03.281Z,8.60
2018-09-12T03:52:32.333Z,9.10
2018-09-12T03:55:01.410Z,8.90
2018-09-12T03:57:30.448Z,7.63
2018-09-12T03:59:59.494Z,7.80
2018-09-12T04:02:28.533Z,8.43
2018-09-12T04:04:57.590Z,8.43
2018-09-12T04:07:26.666Z,8.53
2018-09-12T04:09:55.698Z,8.43
2018-09-12T04:12:24.760Z,9.10
2018-09-12T04:14:53.811Z,8.80
2018-09-12T04:17:23.779Z,8.03
2018-09-12T04:19:54.835Z,7.57
2018-09-12T04:22:23.890Z,7.90
2018-09-12T04:27:28.713Z,7.60
2018-09-12T04:29:57.841Z,7.53
2018-09-12T04:32:26.914Z,7.77
2018-09-12T04:34:57.916Z,7.00
2018-09-12T04:37:26.988Z,7.53
2018-09-12T04:39:56.952Z,8.50
2018-09-12T04:42:25.982Z,7.63
2018-09-12T04:44:56.003Z,7.57
2018-09-12T04:47:25.071Z,7.57
2018-09-12T04:49:55.095Z,7.90
2018-09-12T04:52:24.141Z,8.33
2018-09-12T04:54:53.229Z,7.20
2018-09-12T04:57:22.301Z,8.23
2018-09-12T04:59:52.520Z,7.40
2018-09-12T05:02:21.745Z,8.60
2018-09-12T05:04:50.796Z,8.30
2018-09-12T05:07:19.847Z,8.60
2018-09-12T05:09:48.913Z,6.93
2018-09-12T05:12:19.860Z,8.23
2018-09-12T05:17:25.626Z,8.20
2018-09-12T05:19:54.668Z,7.30
2018-09-12T05:25:00.531Z,7.70
2018-09-12T05:27:29.605Z,7.47
2018-09-12T05:29:59.617Z,8.33
2018-09-12T05:32:28.660Z,8.23
2018-09-12T05:39:38.640Z,8.65
2018-09-12T05:42:07.683Z,8.50
2018-09-12T05:44:36.741Z,7.63
2018-09-12T05:47:06.743Z,7.87
2018-09-12T05:52:11.523Z,7.70
2018-09-12T05:54:40.598Z,8.70
2018-09-12T05:57:09.664Z,8.00
2018-09-12T05:59:38.711Z,7.83
2018-09-12T06:04:43.565Z,9.20
2018-09-12T06:07:16.444Z,7.53
2018-09-12T06:12:21.099Z,7.57
2018-09-12T06:17:25.848Z,7.78
2018-09-12T06:19:54.887Z,8.48
2018-09-12T06:22:23.941Z,8.10
2018-09-12T06:24:54.982Z,8.50
2018-09-12T06:27:32.173Z,8.77
2018-09-12T06:30:02.327Z,7.90
2018-09-12T06:32:34.859Z,8.90
2018-09-12T06:35:08.419Z,9.32
2018-09-12T06:37:37.531Z,8.17
2018-09-12T06:40:06.728Z,6.90
2018-09-12T06:42:40.985Z,8.10
2018-09-12T06:45:10.189Z,7.70
2018-09-12T06:47:40.125Z,7.13
2018-09-12T06:50:12.565Z,7.17
2018-09-12T06:55:17.330Z,7.30
2018-09-12T06:57:46.372Z,7.70
2018-09-12T07:00:15.429Z,7.43
2018-09-12T07:02:45.472Z,7.73
2018-09-12T07:05:18.312Z,7.20
2018-09-12T07:10:24.098Z,7.65
2018-09-12T07:12:53.147Z,6.68
2018-09-12T07:15:22.187Z,6.80
2018-09-12T07:17:53.257Z,6.23
2018-09-12T07:22:58.265Z,7.10
2018-09-12T07:25:28.300Z,6.70
2018-09-12T07:27:57.364Z,7.07
2018-09-12T07:30:26.503Z,6.73
2018-09-12T07:32:57.461Z,6.17
2018-09-12T07:35:30.949Z,6.20
2018-09-12T07:38:00.960Z,6.83
2018-09-12T07:40:32.066Z,5.37
2018-09-12T07:43:02.046Z,6.23
2018-09-12T07:45:31.101Z,6.10
2018-09-12T07:48:00.281Z,5.67
2018-09-12T07:50:29.346Z,6.33
2018-09-12T07:52:58.380Z,5.77
2018-09-12T07:55:27.763Z,6.07
2018-09-12T07:57:57.744Z,6.10
2018-09-12T08:00:26.877Z,6.50
2018-09-12T08:02:56.765Z,6.07
2018-09-12T08:05:29.009Z,5.47
2018-09-12T08:07:58.019Z,6.27
2018-09-12T08:10:27.057Z,5.83
2018-09-12T08:12:56.128Z,5.37
2018-09-12T08:18:00.905Z,6.20
2018-09-12T08:20:29.940Z,6.20
2018-09-12T08:22:58.989Z,5.33
2018-09-12T08:25:30.083Z,5.00
2018-09-12T08:28:01.074Z,5.57
2018-09-12T08:30:41.050Z,4.83
2018-09-12T08:35:45.885Z,6.10
2018-09-12T08:40:52.690Z,6.25
2018-09-12T08:43:21.746Z,6.00
2018-09-12T08:51:02.299Z,6.10
2018-09-12T08:53:31.373Z,5.50
2018-09-12T08:58:36.244Z,5.90
2018-09-12T09:01:15.077Z,5.60
2018-09-12T09:03:44.099Z,5.67
2018-09-12T09:06:14.172Z,5.47
2018-09-12T09:08:43.243Z,5.90
2018-09-12T09:13:48.163Z,5.55
2018-09-12T09:16:28.876Z,5.07
2018-09-12T09:18:57.929Z,5.40
2018-09-12T09:21:26.989Z,5.27
2018-09-12T09:23:56.071Z,4.80
2018-09-12T09:26:25.129Z,5.00
2018-09-12T09:31:30.055Z,5.22
2018-09-12T09:34:03.026Z,5.00
2018-09-12T09:36:32.074Z,5.03
2018-09-12T09:39:02.221Z,4.50
2018-09-12T09:41:31.305Z,4.53
2018-09-12T09:44:00.473Z,4.33
2018-09-12T09:46:29.605Z,4.50
2018-09-12T09:48:58.650Z,4.47
2018-09-12T09:51:27.697Z,4.97
2018-09-12T09:53:56.748Z,4.07
2018-09-12T09:56:25.846Z,4.95
2018-09-12T09:58:56.018Z,3.90
2018-09-12T10:06:36.602Z,4.60
2018-09-12T10:09:06.684Z,4.70
2018-09-12T10:11:36.706Z,4.20
2018-09-12T10:14:09.365Z,4.03
2018-09-12T10:16:38.406Z,4.37
2018-09-12T10:21:43.166Z,4.30
2018-09-12T10:24:12.269Z,4.20
2018-09-12T10:26:46.046Z,4.20
2018-09-12T10:29:15.096Z,4.20
2018-09-12T10:31:44.154Z,3.83
2018-09-12T10:34:13.218Z,4.67
2018-09-12T10:36:42.263Z,4.00
2018-09-12T10:41:47.019Z,3.70
2018-09-12T10:44:16.093Z,3.80
2018-09-12T10:46:45.177Z,3.45
2018-09-12T10:49:14.209Z,3.70
2018-09-12T10:51:44.215Z,3.70
2018-09-12T10:54:14.220Z,3.90
2018-09-12T10:56:44.249Z,3.55
2018-09-12T10:59:13.342Z,3.90
2018-09-12T11:01:44.771Z,3.70
2018-09-12T11:04:13.846Z,3.90
2018-09-12T11:06:42.888Z,3.20
2018-09-12T11:09:11.951Z,3.35
2018-09-12T11:11:40.999Z,3.78
2018-09-12T11:14:10.067Z,3.45
2018-09-12T11:16:39.116Z,3.45
2018-09-12T11:19:08.200Z,3.50
2018-09-12T11:21:37.486Z,3.55
2018-09-12T11:24:06.610Z,3.55
2018-09-12T11:26:35.660Z,3.83
2018-09-12T11:29:04.961Z,3.50
2018-09-12T11:31:34.020Z,3.90
2018-09-12T11:34:03.069Z,3.87
2018-09-12T11:36:32.122Z,4.12
2018-09-12T11:39:01.188Z,4.18
2018-09-12T11:41:31.217Z,3.67
2018-09-12T11:44:00.274Z,3.35
2018-09-12T11:46:29.316Z,4.25
2018-09-12T11:48:58.427Z,3.95
2018-09-12T11:51:27.422Z,3.80
2018-09-12T11:53:56.466Z,3.80
2018-09-12T11:56:26.527Z,3.58
2018-09-12T11:58:56.473Z,4.32
2018-09-12T12:01:26.498Z,3.62
2018-09-12T12:03:56.510Z,3.90
2018-09-12T12:06:29.569Z,4.25
2018-09-12T12:08:59.600Z,4.20
2018-09-12T12:11:28.653Z,3.83
2018-09-12T12:13:57.732Z,3.40
2018-09-12T12:19:02.481Z,3.80
2018-09-12T12:21:33.489Z,3.58
2018-09-12T12:24:04.539Z,3.93
2018-09-12T12:26:33.592Z,3.67
2018-09-12T12:29:02.641Z,3.90
2018-09-12T12:31:31.911Z,3.40
2018-09-12T12:34:00.941Z,3.75
2018-09-12T12:36:29.992Z,4.33
2018-09-12T12:38:59.069Z,4.20
2018-09-12T12:44:03.950Z,4.07
2018-09-12T12:46:36.917Z,3.92
2018-09-12T12:49:06.121Z,4.30
2018-09-12T12:51:35.241Z,3.62
2018-09-12T12:54:04.265Z,3.58
2018-09-12T12:56:33.330Z,4.00
2018-09-12T12:59:03.397Z,4.20
2018-09-12T13:01:32.491Z,4.20
2018-09-12T13:04:01.557Z,3.42
2018-09-12T13:06:30.635Z,3.60
2018-09-12T13:11:37.388Z,4.35
2018-09-12T13:14:06.431Z,4.17
2018-09-12T13:16:37.427Z,4.50
2018-09-12T13:19:06.497Z,3.77
2018-09-12T13:21:35.632Z,4.50
2018-09-12T13:26:40.307Z,3.90
2018-09-12T13:29:09.378Z,4.00
2018-09-12T13:31:40.421Z,3.67
2018-09-12T13:34:09.513Z,4.17
2018-09-12T13:36:38.528Z,4.30
2018-09-12T13:39:07.580Z,3.70
2018-09-12T13:41:36.648Z,4.47
2018-09-12T13:44:05.692Z,4.60
2018-09-12T13:46:34.740Z,4.83
2018-09-12T13:49:05.749Z,6.00
2018-09-12T13:51:34.813Z,5.27
2018-09-12T13:54:08.368Z,4.30
2018-09-12T13:56:37.457Z,6.47
2018-09-12T13:59:06.467Z,4.73
2018-09-12T14:01:35.517Z,4.20
2018-09-12T14:04:04.737Z,4.40
2018-09-12T14:06:33.794Z,3.92
2018-09-12T14:09:11.197Z,4.20
2018-09-12T14:11:41.170Z,4.47
2018-09-12T14:14:10.466Z,4.30
2018-09-12T14:16:39.521Z,4.63
2018-09-12T14:19:08.590Z,4.60
2018-09-12T14:21:43.294Z,4.12
2018-09-12T14:24:12.344Z,4.07
2018-09-12T14:26:41.402Z,4.50
2018-09-12T14:29:10.461Z,4.63
2018-09-12T14:31:41.537Z,4.20
2018-09-12T14:34:10.589Z,3.90
2018-09-12T14:36:39.633Z,3.63
2018-09-12T14:39:08.824Z,3.30
2018-09-12T14:41:38.745Z,3.37
2018-09-12T14:44:08.030Z,4.03
2018-09-12T14:46:37.141Z,4.07
2018-09-12T14:49:07.079Z,3.90
2018-09-12T14:51:37.096Z,3.45
2018-09-12T14:54:06.158Z,4.10
2018-09-12T14:56:35.200Z,4.13
2018-09-12T14:59:04.399Z,3.83
2018-09-12T15:01:35.430Z,3.70
2018-09-12T15:04:04.476Z,3.67
2018-09-12T15:06:34.462Z,4.30
2018-09-12T15:11:39.325Z,4.50
2018-09-12T15:16:44.076Z,4.03
2018-09-12T15:19:13.139Z,3.50
2018-09-12T15:21:42.207Z,3.83
2018-09-12T15:24:11.278Z,4.00
2018-09-12T15:26:40.320Z,4.40
2018-09-12T15:29:09.396Z,4.53
2018-09-12T15:31:38.437Z,4.90
2018-09-12T15:34:07.500Z,5.07
2018-09-12T15:36:36.566Z,4.20
2018-09-12T15:39:05.613Z,6.30
2018-09-12T15:41:34.662Z,8.37
2018-09-12T15:46:39.529Z,14.20
2018-09-12T15:49:08.590Z,4.65
2018-09-12T15:51:37.671Z,5.30
2018-09-12T15:54:06.709Z,4.80
2018-09-12T15:56:35.757Z,4.00
2018-09-12T15:59:04.810Z,4.23
2018-09-12T16:04:09.686Z,5.72
2018-09-12T16:06:38.739Z,5.97
2018-09-12T16:09:07.926Z,6.53
2018-09-12T16:11:40.290Z,5.30
2018-09-12T16:14:10.264Z,4.30
2018-09-12T16:16:39.305Z,4.47
2018-09-12T16:24:15.862Z,5.10
2018-09-12T16:26:45.873Z,5.15
2018-09-12T16:29:16.938Z,5.37
2018-09-12T16:31:46.014Z,5.70
2018-09-12T16:34:16.044Z,5.17
2018-09-12T16:36:45.180Z,5.40
2018-09-12T16:39:14.234Z,5.57
2018-09-12T16:41:43.269Z,5.90
2018-09-12T16:46:48.108Z,5.95
2018-09-12T16:50:30.401Z,6.15
2018-09-12T16:52:59.452Z,5.77
2018-09-12T16:55:30.477Z,6.07
2018-09-12T17:03:14.499Z,6.00
2018-09-12T17:05:44.613Z,4.80
2018-09-12T17:08:14.600Z,5.30
2018-09-12T17:15:56.586Z,8.52
2018-09-12T17:18:25.648Z,9.67
2018-09-12T17:20:58.740Z,24.07
2018-09-12T17:23:28.759Z,5.80
2018-09-12T17:25:59.796Z,5.70
2018-09-12T17:31:04.685Z,6.20
2018-09-12T17:33:33.804Z,5.53
2018-09-12T17:36:03.797Z,7.50
2018-09-12T17:38:34.811Z,6.10
2018-09-12T17:41:03.847Z,6.40
2018-09-12T17:43:32.922Z,6.30
2018-09-12T17:46:02.929Z,7.00
2018-09-12T17:48:37.798Z,6.87
2018-09-12T17:51:06.862Z,6.20
2018-09-12T17:53:35.913Z,6.57
2018-09-12T17:56:04.995Z,6.23
2018-09-12T17:58:34.043Z,6.20
2018-09-12T18:01:03.090Z,6.50
2018-09-12T18:03:35.324Z,6.93
2018-09-12T18:06:04.375Z,6.00
2018-09-12T18:08:33.469Z,6.80
2018-09-12T18:11:04.544Z,6.83
2018-09-12T18:16:09.340Z,6.82
2018-09-12T18:21:14.193Z,7.00
2018-09-12T18:23:43.265Z,7.20
2018-09-12T18:26:12.333Z,7.77
2018-09-12T18:28:41.385Z,7.93
2018-09-12T18:31:10.447Z,8.55
2018-09-12T18:36:15.238Z,6.80
2018-09-12T18:38:45.243Z,6.60
2018-09-12T18:41:15.252Z,7.03
2018-09-12T18:43:45.280Z,6.90
2018-09-12T18:46:14.324Z,5.87
2018-09-12T18:48:43.437Z,6.77
2018-09-12T18:51:12.488Z,8.00
2018-09-12T18:56:18.647Z,7.60
2018-09-12T18:58:48.050Z,6.97
2018-09-12T19:01:17.112Z,6.60
2018-09-12T19:03:46.155Z,6.57
2018-09-12T19:06:16.125Z,6.83
2018-09-12T19:08:45.184Z,7.30
2018-09-12T19:11:17.861Z,8.60
2018-09-12T19:13:46.949Z,6.70
2018-09-12T19:18:51.738Z,7.30
2018-09-12T19:23:56.484Z,8.00
2018-09-12T19:26:25.594Z,8.30
2018-09-12T19:28:56.618Z,7.47
2018-09-12T19:31:25.677Z,7.57
2018-09-12T19:33:54.737Z,7.30
2018-09-12T19:36:23.877Z,7.72
2018-09-12T19:38:52.844Z,7.37
2018-09-12T19:41:21.897Z,7.57
2018-09-12T19:43:50.940Z,7.47
2018-09-12T19:46:19.992Z,8.07
2018-09-12T19:48:51.029Z,7.70
2018-09-12T19:51:21.062Z,7.47
2018-09-12T19:53:50.126Z,7.47
2018-09-12T19:56:19.177Z,6.80
2018-09-12T19:58:48.413Z,7.50
2018-09-12T20:01:18.437Z,6.97
2018-09-12T20:03:47.450Z,7.53
2018-09-12T20:06:16.492Z,7.10
2018-09-12T20:08:45.548Z,7.53
2018-09-12T20:11:14.648Z,7.87
2018-09-12T20:13:43.703Z,8.10
2018-09-12T20:16:12.762Z,7.47
2018-09-12T20:21:17.545Z,8.27
2018-09-12T20:23:47.681Z,7.60
2018-09-12T20:28:52.317Z,7.65
2018-09-12T20:31:23.367Z,7.78
2018-09-12T20:36:28.249Z,7.25
2018-09-12T20:38:57.534Z,7.90
2018-09-12T20:41:28.560Z,7.87
2018-09-12T20:46:33.415Z,8.20
2018-09-12T20:51:38.246Z,8.30
2018-09-12T20:54:07.366Z,8.10
2018-09-12T20:59:12.289Z,7.97
2018-09-12T21:01:42.321Z,8.13
2018-09-12T21:04:11.376Z,8.17
2018-09-12T21:06:40.434Z,8.43
2018-09-12T21:09:09.489Z,13.43
2018-09-12T21:11:38.590Z,12.70
2018-09-12T21:14:07.733Z,13.77
2018-09-12T21:16:36.797Z,14.40
2018-09-12T21:21:41.685Z,16.90
2018-09-12T21:24:10.750Z,9.68
2018-09-12T21:29:15.710Z,8.40
2018-09-12T21:34:21.498Z,7.22
2018-09-12T21:36:50.555Z,8.20
2018-09-12T21:39:19.593Z,7.63
2018-09-12T21:41:48.657Z,6.97
2018-09-12T21:44:17.689Z,6.60
2018-09-12T21:46:47.692Z,7.50
2018-09-12T21:52:00.264Z,6.90
2018-09-12T21:54:29.320Z,6.80
2018-09-12T21:59:34.093Z,7.45
2018-09-12T22:04:38.841Z,7.60
2018-09-12T22:07:07.892Z,7.55
2018-09-12T22:09:38.867Z,6.60
2018-09-12T22:12:09.910Z,7.23
2018-09-12T22:14:40.952Z,6.90
2018-09-12T22:17:10.068Z,7.40
2018-09-12T22:19:39.053Z,6.60
2018-09-12T22:22:08.107Z,8.00
2018-09-12T22:24:38.060Z,6.53
2018-09-12T22:29:42.845Z,7.50
2018-09-12T22:34:47.690Z,8.68
2018-09-12T22:37:17.251Z,8.73
2018-09-12T22:39:48.335Z,8.33
2018-09-12T22:42:20.795Z,8.80
2018-09-12T22:44:49.843Z,8.57
2018-09-12T22:47:18.873Z,8.57
2018-09-12T22:49:47.920Z,8.60
2018-09-12T22:52:16.983Z,8.03
2018-09-12T22:54:46.025Z,8.03
2018-09-12T22:59:50.869Z,8.70
2018-09-12T23:02:19.921Z,8.95
2018-09-12T23:04:48.977Z,8.20
2018-09-12T23:09:54.290Z,8.10
2018-09-12T23:12:23.305Z,7.37
2018-09-12T23:14:52.352Z,8.90
2018-09-12T23:17:21.399Z,7.70
2018-09-12T23:19:50.448Z,8.47
2018-09-12T23:22:20.424Z,7.17
2018-09-12T23:24:50.433Z,7.47
2018-09-12T23:29:55.218Z,8.27
2018-09-12T23:35:01.985Z,8.45
2018-09-12T23:37:36.216Z,7.43
2018-09-12T23:40:05.264Z,7.50
2018-09-12T23:42:34.303Z,7.67
2018-09-12T23:47:39.178Z,8.50
2018-09-12T23:50:09.089Z,8.70
2018-09-12T23:52:38.196Z,8.80
2018-09-12T23:55:07.240Z,8.10
2018-09-12T23:57:36.295Z,8.93
